createdAt,value
2019-05-15T00:02:18.268Z,8.66
2019-05-15T00:04:51.588Z,8.59
2019-05-15T00:07:25.210Z,8.62
2019-05-15T00:09:59.277Z,8.62
2019-05-15T00:12:32.987Z,8.64
2019-05-15T00:15:09.404Z,8.62
2019-05-15T00:17:43.802Z,8.57
2019-05-15T00:20:20.082Z,8.59
2019-05-15T00:22:52.753Z,8.52
2019-05-15T00:25:28.304Z,8.55
2019-05-15T00:28:01.860Z,8.48
2019-05-15T00:30:35.579Z,8.52
2019-05-15T00:33:09.451Z,8.47
2019-05-15T00:35:43.087Z,8.46
2019-05-15T00:38:18.637Z,8.46
2019-05-15T00:40:52.081Z,8.52
2019-05-15T00:43:25.752Z,8.52
2019-05-15T00:45:59.872Z,8.43
2019-05-15T00:48:33.581Z,8.45
2019-05-15T00:51:08.405Z,8.49
2019-05-15T00:53:42.223Z,8.45
2019-05-15T00:56:15.878Z,8.31
2019-05-15T00:58:49.505Z,8.32
2019-05-15T01:01:23.254Z,8.31
2019-05-15T01:03:58.617Z,8.35
2019-05-15T01:06:32.478Z,8.32
2019-05-15T01:09:08.382Z,8.31
2019-05-15T01:11:42.130Z,8.28
2019-05-15T01:14:15.844Z,8.14
2019-05-15T01:16:49.998Z,8.18
2019-05-15T01:19:23.650Z,8.17
2019-05-15T01:21:58.697Z,8.12
2019-05-15T01:24:32.390Z,8.06
2019-05-15T01:27:06.040Z,8.06
2019-05-15T01:29:44.690Z,8.02
2019-05-15T01:32:14.929Z,8.07
2019-05-15T01:34:49.185Z,7.86
2019-05-15T01:37:22.946Z,7.94
2019-05-15T01:39:58.152Z,7.87
2019-05-15T01:42:31.768Z,7.83
2019-05-15T01:45:08.726Z,7.74
2019-05-15T01:47:41.927Z,7.73
2019-05-15T01:50:18.406Z,7.70
2019-05-15T01:52:51.340Z,7.69
2019-05-15T01:55:24.953Z,7.66
2019-05-15T01:57:58.623Z,7.64
2019-05-15T02:00:32.294Z,7.58
2019-05-15T02:03:05.912Z,7.64
2019-05-15T02:05:39.603Z,7.62
2019-05-15T02:08:13.338Z,7.66
2019-05-15T02:10:49.142Z,7.59
2019-05-15T02:13:22.291Z,7.61
2019-05-15T02:15:55.996Z,7.50
2019-05-15T02:18:29.656Z,7.57
2019-05-15T02:21:06.548Z,7.46
2019-05-15T02:23:38.922Z,7.34
2019-05-15T02:26:12.578Z,7.32
2019-05-15T02:28:48.638Z,7.28
2019-05-15T02:31:21.554Z,7.29
2019-05-15T02:33:55.176Z,7.12
2019-05-15T02:36:29.442Z,7.08
2019-05-15T02:39:03.163Z,7.05
2019-05-15T02:41:39.553Z,7.06
2019-05-15T02:44:12.222Z,7.01
2019-05-15T02:46:45.905Z,6.93
2019-05-15T02:49:19.710Z,6.91
2019-05-15T02:51:53.335Z,6.89
2019-05-15T02:54:29.899Z,6.85
2019-05-15T02:57:02.206Z,6.82
2019-05-15T02:59:35.831Z,6.83
2019-05-15T03:02:10.365Z,6.76
2019-05-15T03:04:44.171Z,6.77
2019-05-15T03:07:19.322Z,6.76
2019-05-15T03:09:53.384Z,6.79
2019-05-15T03:12:29.047Z,6.78
2019-05-15T03:15:02.415Z,6.80
2019-05-15T03:17:39.735Z,6.76
2019-05-15T03:20:11.931Z,6.72
2019-05-15T03:22:45.502Z,6.67
2019-05-15T03:25:19.288Z,6.63
2019-05-15T03:27:52.834Z,6.61
2019-05-15T03:30:31.864Z,6.48
2019-05-15T03:33:09.503Z,6.56
2019-05-15T03:35:42.498Z,6.56
2019-05-15T03:38:12.643Z,6.52
2019-05-15T03:40:49.599Z,6.53
2019-05-15T03:43:21.655Z,6.46
2019-05-15T03:45:55.505Z,6.45
2019-05-15T03:48:32.046Z,6.51
2019-05-15T03:51:08.910Z,6.51
2019-05-15T03:53:41.556Z,6.54
2019-05-15T03:56:15.290Z,6.48
2019-05-15T03:58:49.543Z,6.40
2019-05-15T04:01:34.170Z,6.43
2019-05-15T04:03:59.839Z,6.44
2019-05-15T04:06:33.751Z,6.50
2019-05-15T04:09:09.690Z,6.49
2019-05-15T04:11:43.511Z,6.50
2019-05-15T04:14:19.381Z,6.49
2019-05-15T04:16:52.507Z,6.48
2019-05-15T04:19:29.346Z,6.53
2019-05-15T04:22:01.638Z,6.56
2019-05-15T04:24:39.201Z,6.49
2019-05-15T04:27:11.656Z,6.43
2019-05-15T04:29:45.277Z,6.47
2019-05-15T04:32:20.074Z,6.48
2019-05-15T04:34:53.922Z,6.46
2019-05-15T04:37:29.914Z,6.40
2019-05-15T04:40:02.630Z,6.38
2019-05-15T04:42:39.401Z,6.44
2019-05-15T04:45:12.266Z,6.43
2019-05-15T04:47:45.966Z,6.34
2019-05-15T04:50:19.730Z,6.40
2019-05-15T04:52:53.546Z,6.39
2019-05-15T04:55:29.012Z,6.39
2019-05-15T04:58:02.656Z,6.45
2019-05-15T05:00:50.524Z,6.43
2019-05-15T05:03:28.897Z,6.52
2019-05-15T05:06:01.050Z,6.52
2019-05-15T05:08:39.448Z,6.45
2019-05-15T05:11:11.828Z,6.42
2019-05-15T05:13:48.356Z,6.39
2019-05-15T05:16:21.262Z,6.41
2019-05-15T05:18:55.017Z,6.38
2019-05-15T05:21:28.720Z,6.37
2019-05-15T05:24:02.571Z,6.37
2019-05-15T05:26:38.247Z,6.42
2019-05-15T05:29:12.255Z,6.34
2019-05-15T05:31:53.836Z,6.37
2019-05-15T05:34:28.326Z,6.38
2019-05-15T05:37:02.139Z,6.32
2019-05-15T05:39:35.830Z,6.30
2019-05-15T05:42:09.525Z,6.31
2019-05-15T05:44:43.249Z,6.29
2019-05-15T05:47:18.314Z,6.30
2019-05-15T05:49:52.050Z,6.34
2019-05-15T05:52:27.867Z,6.33
2019-05-15T05:55:01.285Z,6.32
2019-05-15T05:57:35.043Z,6.21
2019-05-15T06:00:09.662Z,6.26
2019-05-15T06:02:47.740Z,6.35
2019-05-15T06:05:19.072Z,6.31
2019-05-15T06:07:51.966Z,6.33
2019-05-15T06:10:25.694Z,6.46
2019-05-15T06:12:59.439Z,6.45
2019-05-15T06:15:33.326Z,6.49
2019-05-15T06:18:08.307Z,6.38
2019-05-15T06:20:42.776Z,6.41
2019-05-15T06:23:22.293Z,6.54
2019-05-15T06:25:51.817Z,6.49
2019-05-15T06:28:25.435Z,6.46
2019-05-15T06:31:00.628Z,6.48
2019-05-15T06:33:35.705Z,6.58
2019-05-15T06:36:09.490Z,6.50
2019-05-15T06:38:43.158Z,6.58
2019-05-15T06:41:18.141Z,6.61
2019-05-15T06:43:52.027Z,6.66
2019-05-15T06:46:28.030Z,6.76
2019-05-15T06:49:01.260Z,6.82
2019-05-15T06:51:35.148Z,6.84
2019-05-15T06:54:08.915Z,6.85
2019-05-15T06:56:42.754Z,6.93
2019-05-15T06:59:18.007Z,6.88
2019-05-15T07:01:52.241Z,6.91
2019-05-15T07:04:25.959Z,7.00
2019-05-15T07:07:00.686Z,7.09
2019-05-15T07:09:34.537Z,7.17
2019-05-15T07:12:09.897Z,7.13
2019-05-15T07:14:43.651Z,7.16
2019-05-15T07:17:17.806Z,7.17
2019-05-15T07:19:51.469Z,7.42
2019-05-15T07:22:28.776Z,7.47
2019-05-15T07:25:01.561Z,7.39
2019-05-15T07:27:35.607Z,7.39
2019-05-15T07:30:12.240Z,7.42
2019-05-15T07:32:48.419Z,7.45
2019-05-15T07:35:24.294Z,7.46
2019-05-15T07:37:58.652Z,7.49
2019-05-15T07:40:32.685Z,7.55
2019-05-15T07:43:09.384Z,7.56
2019-05-15T07:45:44.463Z,7.63
2019-05-15T07:48:18.824Z,7.66
2019-05-15T07:50:52.984Z,7.63
2019-05-15T07:53:28.851Z,7.63
2019-05-15T07:56:01.800Z,7.70
2019-05-15T07:58:35.710Z,7.71
2019-05-15T08:01:10.176Z,7.73
2019-05-15T08:03:56.691Z,7.65
2019-05-15T08:06:19.600Z,7.78
2019-05-15T08:08:54.325Z,7.75
2019-05-15T08:11:28.662Z,7.85
2019-05-15T08:14:03.774Z,7.69
2019-05-15T08:16:39.584Z,7.73
2019-05-15T08:19:12.934Z,7.72
2019-05-15T08:21:51.400Z,7.75
2019-05-15T08:24:22.225Z,7.79
2019-05-15T08:26:57.994Z,7.84
2019-05-15T08:29:31.417Z,7.87
2019-05-15T08:32:05.045Z,7.94
2019-05-15T08:34:39.216Z,7.93
2019-05-15T08:37:13.129Z,8.01
2019-05-15T08:39:48.706Z,8.00
2019-05-15T08:42:22.597Z,8.00
2019-05-15T08:44:58.296Z,8.02
2019-05-15T08:47:31.785Z,8.11
2019-05-15T08:50:06.063Z,8.14
2019-05-15T08:52:39.850Z,8.15
2019-05-15T08:55:14.303Z,8.20
2019-05-15T08:57:55.570Z,8.18
2019-05-15T09:00:23.772Z,8.11
2019-05-15T09:02:58.182Z,8.11
2019-05-15T09:05:32.584Z,8.15
2019-05-15T09:08:09.071Z,8.14
2019-05-15T09:10:41.758Z,8.17
2019-05-15T09:13:15.385Z,8.19
2019-05-15T09:15:49.272Z,8.15
2019-05-15T09:18:23.014Z,8.19
2019-05-15T09:20:59.100Z,8.07
2019-05-15T09:23:32.068Z,8.11
2019-05-15T09:26:08.967Z,8.18
2019-05-15T09:28:41.569Z,8.16
2019-05-15T09:31:15.382Z,8.14
2019-05-15T09:33:50.475Z,8.16
2019-05-15T09:36:24.157Z,8.16
2019-05-15T09:38:58.493Z,8.18
2019-05-15T09:41:32.465Z,8.32
2019-05-15T09:44:08.040Z,8.30
2019-05-15T09:46:42.212Z,8.36
2019-05-15T09:49:18.098Z,8.33
2019-05-15T09:51:52.186Z,8.34
2019-05-15T09:54:25.856Z,8.34
2019-05-15T09:56:59.551Z,8.37
2019-05-15T09:59:33.798Z,8.41
2019-05-15T10:02:09.259Z,8.44
2019-05-15T10:04:42.967Z,8.51
2019-05-15T10:07:19.112Z,8.47
2019-05-15T10:09:52.542Z,8.50
2019-05-15T10:12:33.889Z,8.43
2019-05-15T10:15:01.688Z,8.51
2019-05-15T10:17:35.507Z,8.52
2019-05-15T10:20:09.422Z,8.55
2019-05-15T10:22:43.117Z,8.59
2019-05-15T10:25:19.024Z,8.59
2019-05-15T10:27:52.490Z,8.59
2019-05-15T10:30:28.354Z,8.68
2019-05-15T10:33:02.038Z,8.73
2019-05-15T10:35:35.796Z,8.78
2019-05-15T10:38:09.627Z,8.79
2019-05-15T10:40:58.452Z,8.90
2019-05-15T10:43:20.635Z,8.87
2019-05-15T10:45:54.797Z,8.97
2019-05-15T10:48:29.452Z,8.92
2019-05-15T10:51:07.143Z,8.96
2019-05-15T10:53:39.081Z,8.97
2019-05-15T10:56:12.894Z,9.00
2019-05-15T10:58:50.171Z,9.03
2019-05-15T11:01:22.574Z,9.00
2019-05-15T11:03:58.670Z,9.01
2019-05-15T11:06:31.681Z,9.02
2019-05-15T11:09:08.464Z,8.99
2019-05-15T11:11:41.835Z,8.99
2019-05-15T11:14:18.293Z,9.04
2019-05-15T11:16:51.425Z,9.10
2019-05-15T11:19:35.763Z,9.14
2019-05-15T11:22:00.814Z,9.18
2019-05-15T11:24:34.501Z,9.17
2019-05-15T11:27:09.977Z,9.10
2019-05-15T11:29:43.488Z,9.11
2019-05-15T11:32:17.216Z,9.11
2019-05-15T11:34:50.883Z,9.15
2019-05-15T11:37:24.656Z,9.26
2019-05-15T11:39:59.086Z,9.32
2019-05-15T11:42:33.301Z,9.27
2019-05-15T11:45:10.975Z,9.32
2019-05-15T11:47:44.821Z,9.35
2019-05-15T11:50:20.795Z,9.37
2019-05-15T11:52:58.575Z,9.38
2019-05-15T11:55:33.740Z,9.46
2019-05-15T11:58:09.315Z,9.50
2019-05-15T12:00:43.018Z,9.59
2019-05-15T12:03:18.879Z,9.56
2019-05-15T12:05:52.038Z,9.60
2019-05-15T12:08:25.722Z,9.64
2019-05-15T12:11:00.290Z,9.65
2019-05-15T12:13:34.285Z,9.73
2019-05-15T12:16:08.269Z,9.73
2019-05-15T12:18:41.907Z,9.74
2019-05-15T12:21:19.797Z,9.75
2019-05-15T12:23:50.914Z,9.78
2019-05-15T12:26:24.943Z,9.79
2019-05-15T12:28:59.117Z,9.76
2019-05-15T12:31:32.912Z,9.85
2019-05-15T12:34:08.932Z,9.91
2019-05-15T12:36:51.850Z,9.93
2019-05-15T12:39:22.031Z,9.94
2019-05-15T13:00:10.484Z,10.05
2019-05-15T13:02:49.215Z,10.03
2019-05-15T13:05:28.685Z,10.02
2019-05-15T13:08:02.331Z,10.06
2019-05-15T13:10:38.375Z,10.12
2019-05-15T13:13:15.639Z,10.15
2019-05-15T13:15:55.671Z,10.08
2019-05-15T13:18:29.535Z,10.12
2019-05-15T13:21:03.369Z,10.23
2019-05-15T13:23:38.719Z,10.22
2019-05-15T13:26:23.101Z,10.24
2019-05-15T13:28:48.797Z,10.24
2019-05-15T13:31:23.298Z,10.25
2019-05-15T13:33:58.890Z,10.29
2019-05-15T13:36:32.689Z,10.27
2019-05-15T13:39:07.669Z,10.31
2019-05-15T13:41:48.495Z,10.36
2019-05-15T13:44:30.131Z,10.44
2019-05-15T13:47:04.483Z,10.38
2019-05-15T13:49:42.666Z,10.40
2019-05-15T13:52:28.136Z,10.43
2019-05-15T13:55:24.753Z,10.51
2019-05-15T13:58:15.257Z,10.63
2019-05-15T14:00:49.540Z,10.62
2019-05-15T14:03:35.412Z,10.56
2019-05-15T14:06:09.828Z,10.57
2019-05-15T14:08:43.933Z,10.65
2019-05-15T14:11:21.702Z,10.68
2019-05-15T14:13:54.557Z,10.66
2019-05-15T14:16:28.446Z,10.68
2019-05-15T14:19:02.276Z,10.71
2019-05-15T14:21:37.969Z,10.78
2019-05-15T14:26:43.801Z,10.69
2019-05-15T14:29:18.893Z,10.74
2019-05-15T14:31:52.745Z,10.77
2019-05-15T14:34:28.921Z,10.80
2019-05-15T14:37:01.879Z,10.84
2019-05-15T14:39:37.987Z,10.89
2019-05-15T14:42:11.184Z,10.90
2019-05-15T14:44:45.130Z,10.94
2019-05-15T14:47:19.326Z,11.00
2019-05-15T14:49:54.124Z,11.00
2019-05-15T14:52:28.076Z,11.07
2019-05-15T14:55:01.719Z,11.07
2019-05-15T14:57:35.449Z,11.10
2019-05-15T15:00:10.340Z,11.07
2019-05-15T15:02:43.907Z,11.11
2019-05-15T15:05:21.791Z,11.12
2019-05-15T15:07:53.141Z,11.17
2019-05-15T15:10:28.950Z,11.20
2019-05-15T15:13:02.450Z,11.23
2019-05-15T15:15:37.929Z,11.30
2019-05-15T15:18:11.898Z,11.36
2019-05-15T15:20:45.575Z,11.46
2019-05-15T15:23:19.174Z,11.56
2019-05-15T15:25:52.838Z,11.68
2019-05-15T15:28:28.021Z,11.69
2019-05-15T15:31:01.794Z,11.77
2019-05-15T15:34:00.259Z,11.76
2019-05-15T15:36:40.748Z,11.82
2019-05-15T15:39:14.995Z,11.83
2019-05-15T15:41:50.665Z,11.81
2019-05-15T15:44:27.906Z,11.83
2019-05-15T15:47:00.701Z,11.86
2019-05-15T15:52:13.951Z,11.93
2019-05-15T15:54:47.529Z,12.03
2019-05-15T15:57:21.033Z,12.09
2019-05-15T15:59:54.720Z,12.12
2019-05-15T16:02:28.441Z,12.15
2019-05-15T16:05:02.150Z,12.15
2019-05-15T16:07:37.955Z,12.13
2019-05-15T16:10:12.334Z,12.17
2019-05-15T16:12:46.045Z,12.14
2019-05-15T16:15:24.512Z,12.17
2019-05-15T16:17:59.459Z,12.13
2019-05-15T16:20:33.128Z,12.18
2019-05-15T16:23:08.352Z,12.15
2019-05-15T16:25:42.120Z,12.22
2019-05-15T16:28:18.276Z,12.22
2019-05-15T16:30:51.773Z,12.24
2019-05-15T16:33:25.333Z,12.26
2019-05-15T16:35:59.131Z,12.24
2019-05-15T16:38:32.685Z,12.26
2019-05-15T16:41:08.559Z,12.26
2019-05-15T16:43:41.420Z,12.22
2019-05-15T16:46:14.971Z,12.23
2019-05-15T16:48:49.455Z,12.22
2019-05-15T16:51:23.274Z,12.23
2019-05-15T16:53:58.161Z,12.23
2019-05-15T16:56:31.717Z,12.22
2019-05-15T16:59:05.274Z,12.24
2019-05-15T17:01:39.365Z,12.25
2019-05-15T17:04:12.949Z,12.26
2019-05-15T17:06:49.139Z,12.26
2019-05-15T17:09:21.988Z,12.22
2019-05-15T17:11:58.165Z,12.16
2019-05-15T17:14:32.095Z,12.07
2019-05-15T17:17:07.967Z,12.07
2019-05-15T17:19:41.678Z,12.03
2019-05-15T17:22:15.385Z,11.86
2019-05-15T17:24:49.279Z,11.75
2019-05-15T17:27:24.763Z,11.67
2019-05-15T17:29:58.528Z,11.66
2019-05-15T17:32:32.067Z,11.49
2019-05-15T17:35:10.119Z,11.37
2019-05-15T17:37:43.846Z,11.36
2019-05-15T17:40:17.876Z,11.31
2019-05-15T17:42:51.559Z,11.20
2019-05-15T17:45:25.205Z,11.20
2019-05-15T17:48:00.127Z,11.10
2019-05-15T17:50:48.232Z,11.03
2019-05-15T17:53:09.323Z,10.94
2019-05-15T17:55:42.975Z,10.80
2019-05-15T17:58:16.862Z,10.86
2019-05-15T18:00:50.376Z,10.81
2019-05-15T18:03:24.079Z,10.75
2019-05-15T18:05:59.413Z,10.76
2019-05-15T18:08:34.652Z,10.80
2019-05-15T18:11:08.421Z,10.64
2019-05-15T18:13:42.183Z,10.67
2019-05-15T18:16:18.223Z,10.63
2019-05-15T18:18:52.930Z,10.59
2019-05-15T18:21:28.917Z,10.61
2019-05-15T18:24:03.585Z,10.54
2019-05-15T18:26:38.729Z,10.45
2019-05-15T18:29:12.536Z,10.29
2019-05-15T18:31:48.051Z,10.18
2019-05-15T18:34:22.006Z,10.09
2019-05-15T18:36:57.738Z,9.98
2019-05-15T18:39:30.930Z,9.87
2019-05-15T18:42:04.736Z,9.77
2019-05-15T18:44:39.475Z,9.74
2019-05-15T18:47:13.628Z,9.65
2019-05-15T18:50:04.054Z,9.55
2019-05-15T18:52:28.777Z,9.57
2019-05-15T18:55:07.855Z,9.60
2019-05-15T18:57:41.833Z,9.63
2019-05-15T19:00:18.377Z,9.59
2019-05-15T19:02:52.479Z,9.60
2019-05-15T19:05:28.118Z,9.50
2019-05-15T19:08:01.693Z,9.50
2019-05-15T19:10:35.437Z,9.43
2019-05-15T19:13:09.336Z,9.42
2019-05-15T19:15:43.436Z,9.36
2019-05-15T19:18:18.607Z,9.31
2019-05-15T19:20:52.529Z,9.27
2019-05-15T19:23:26.368Z,9.29
2019-05-15T19:26:00.351Z,9.34
2019-05-15T19:28:34.081Z,9.34
2019-05-15T19:31:08.912Z,9.30
2019-05-15T19:33:42.838Z,9.33
2019-05-15T19:36:18.264Z,9.29
2019-05-15T19:38:52.006Z,9.28
2019-05-15T19:41:25.904Z,9.27
2019-05-15T19:43:59.726Z,9.30
2019-05-15T19:46:33.562Z,9.33
2019-05-15T19:49:08.743Z,9.37
2019-05-15T19:51:42.647Z,9.29
2019-05-15T19:54:18.405Z,9.25
2019-05-15T19:56:51.862Z,9.27
2019-05-15T19:59:25.651Z,9.28
2019-05-15T20:01:59.581Z,9.17
2019-05-15T20:04:33.677Z,9.16
2019-05-15T20:07:08.023Z,9.16
2019-05-15T20:09:42.846Z,9.19
2019-05-15T20:12:18.604Z,9.21
2019-05-15T20:14:53.037Z,9.25
2019-05-15T20:17:27.846Z,9.27
2019-05-15T20:20:03.103Z,9.25
2019-05-15T20:22:40.555Z,9.15
2019-05-15T20:25:18.327Z,9.13
2019-05-15T20:27:51.743Z,9.13
2019-05-15T20:30:28.408Z,9.04
2019-05-15T20:33:01.603Z,9.09
2019-05-15T20:35:38.451Z,9.12
2019-05-15T20:38:14.283Z,9.05
2019-05-15T20:40:49.063Z,9.10
2019-05-15T20:43:23.413Z,9.09
2019-05-15T20:45:57.733Z,9.14
2019-05-15T20:48:33.529Z,9.10
2019-05-15T20:51:08.233Z,9.11
2019-05-15T20:53:42.138Z,9.05
2019-05-15T20:56:16.124Z,8.93
2019-05-15T20:58:50.521Z,8.99
2019-05-15T21:01:24.424Z,8.95
2019-05-15T21:03:59.628Z,8.98
2019-05-15T21:06:33.583Z,9.01
2019-05-15T21:09:09.212Z,8.99
2019-05-15T21:11:42.991Z,9.02
2019-05-15T21:14:16.970Z,9.02
2019-05-15T21:16:50.877Z,9.04
2019-05-15T21:19:24.715Z,9.06
2019-05-15T21:21:58.642Z,9.12
2019-05-15T21:24:32.387Z,9.11
2019-05-15T21:27:06.374Z,9.07
2019-05-15T21:29:40.580Z,9.03
2019-05-15T21:32:14.600Z,9.04
2019-05-15T21:34:49.409Z,9.10
2019-05-15T21:37:23.377Z,9.09
2019-05-15T21:39:58.946Z,9.04
2019-05-15T21:42:32.549Z,9.08
2019-05-15T21:45:13.733Z,9.07
2019-05-15T21:47:42.132Z,9.09
2019-05-15T21:50:19.362Z,9.16
2019-05-15T21:52:52.823Z,9.13
2019-05-15T21:55:28.698Z,9.14
2019-05-15T21:58:01.911Z,9.16
2019-05-15T22:00:39.910Z,9.19
2019-05-15T22:03:13.927Z,9.19
2019-05-15T22:05:48.810Z,9.13
2019-05-15T22:08:22.692Z,9.14
2019-05-15T22:10:56.456Z,9.19
2019-05-15T22:13:31.525Z,9.13
2019-05-15T22:16:05.239Z,9.12
2019-05-15T22:18:38.799Z,9.10
2019-05-15T22:21:13.242Z,9.11
2019-05-15T22:23:46.723Z,9.12
2019-05-15T22:26:21.603Z,9.19
2019-05-15T22:28:55.097Z,9.19
2019-05-15T22:31:28.440Z,9.19
2019-05-15T22:34:01.885Z,9.25
2019-05-15T22:36:35.353Z,9.23
2019-05-15T22:39:09.595Z,9.26
2019-05-15T22:41:43.049Z,9.26
2019-05-15T22:44:18.986Z,9.31
2019-05-15T22:46:51.586Z,9.29
2019-05-15T22:49:25.058Z,9.31
2019-05-15T22:51:59.384Z,9.31
2019-05-15T22:54:34.797Z,9.28
2019-05-15T22:57:08.322Z,9.31
2019-05-15T22:59:42.957Z,9.34
2019-05-15T23:02:18.016Z,9.31
2019-05-15T23:04:51.419Z,9.29
2019-05-15T23:07:24.972Z,9.33
2019-05-15T23:09:58.761Z,9.33
2019-05-15T23:12:32.440Z,9.32
2019-05-15T23:15:08.384Z,9.32
2019-05-15T23:17:41.540Z,9.35
2019-05-15T23:20:17.413Z,9.31
2019-05-15T23:22:50.637Z,9.33
2019-05-15T23:25:24.346Z,9.36
2019-05-15T23:27:58.807Z,9.38
2019-05-15T23:30:32.240Z,9.41
2019-05-15T23:33:05.704Z,9.37
2019-05-15T23:35:41.613Z,9.37
2019-05-15T23:38:14.359Z,9.33
2019-05-15T23:40:48.304Z,9.40
2019-05-15T23:43:21.867Z,9.39
2019-05-15T23:45:55.296Z,9.37
2019-05-15T23:48:28.742Z,9.43
2019-05-15T23:51:02.198Z,9.43
2019-05-15T23:53:35.636Z,9.42
2019-05-15T23:56:09.467Z,9.46
2019-05-15T23:58:42.945Z,9.49
